sensor_id;sensor_type;location;lat;lon;timestamp;P1;durP1;ratioP1;P2;durP2;ratioP2
65328;SDS011;51941;52.210;5.158;2023-05-10T00:01:56;31.20;;;18.95;;
65328;SDS011;51941;52.210;5.158;2023-05-10T00:04:22;29.58;;;18.92;;
65328;SDS011;51941;52.210;5.158;2023-05-10T00:06:52;33.63;;;20.45;;
65328;SDS011;51941;52.210;5.158;2023-05-10T00:09:19;35.75;;;20.63;;
65328;SDS011;51941;52.210;5.158;2023-05-10T00:11:45;33.60;;;20.50;;
65328;SDS011;51941;52.210;5.158;2023-05-10T00:14:12;33.63;;;20.42;;
65328;SDS011;51941;52.210;5.158;2023-05-10T00:16:39;33.20;;;20.27;;
65328;SDS011;51941;52.210;5.158;2023-05-10T00:19:07;30.40;;;19.88;;
65328;SDS011;51941;52.210;5.158;2023-05-10T00:21:33;32.55;;;20.33;;
65328;SDS011;51941;52.210;5.158;2023-05-10T00:24:00;32.70;;;19.98;;
65328;SDS011;51941;52.210;5.158;2023-05-10T00:26:27;35.95;;;21.30;;
65328;SDS011;51941;52.210;5.158;2023-05-10T00:28:55;35.53;;;21.40;;
65328;SDS011;51941;52.210;5.158;2023-05-10T00:31:23;33.60;;;20.35;;
65328;SDS011;51941;52.210;5.158;2023-05-10T00:33:50;34.13;;;20.25;;
65328;SDS011;51941;52.210;5.158;2023-05-10T00:36:18;28.65;;;18.98;;
65328;SDS011;51941;52.210;5.158;2023-05-10T00:38:45;33.90;;;20.10;;
65328;SDS011;51941;52.210;5.158;2023-05-10T00:41:12;31.58;;;19.58;;
65328;SDS011;51941;52.210;5.158;2023-05-10T00:43:39;31.83;;;19.92;;
65328;SDS011;51941;52.210;5.158;2023-05-10T00:46:06;36.17;;;20.40;;
65328;SDS011;51941;52.210;5.158;2023-05-10T00:48:33;33.70;;;19.95;;
65328;SDS011;51941;52.210;5.158;2023-05-10T00:51:01;32.63;;;19.50;;
65328;SDS011;51941;52.210;5.158;2023-05-10T00:53:29;35.55;;;20.65;;
65328;SDS011;51941;52.210;5.158;2023-05-10T00:55:57;35.45;;;20.48;;
65328;SDS011;51941;52.210;5.158;2023-05-10T00:58:24;35.63;;;20.48;;
65328;SDS011;51941;52.210;5.158;2023-05-10T01:00:53;38.28;;;21.13;;
65328;SDS011;51941;52.210;5.158;2023-05-10T01:03:21;35.95;;;20.90;;
65328;SDS011;51941;52.210;5.158;2023-05-10T01:05:48;40.10;;;22.73;;
65328;SDS011;51941;52.210;5.158;2023-05-10T01:08:14;39.67;;;22.30;;
65328;SDS011;51941;52.210;5.158;2023-05-10T01:10:43;38.20;;;23.05;;
65328;SDS011;51941;52.210;5.158;2023-05-10T01:13:10;41.28;;;22.58;;
65328;SDS011;51941;52.210;5.158;2023-05-10T01:15:38;37.47;;;23.58;;
65328;SDS011;51941;52.210;5.158;2023-05-10T01:18:05;42.15;;;23.58;;
65328;SDS011;51941;52.210;5.158;2023-05-10T01:20:35;38.47;;;23.55;;
65328;SDS011;51941;52.210;5.158;2023-05-10T01:23:10;39.80;;;23.42;;
65328;SDS011;51941;52.210;5.158;2023-05-10T01:29:06;44.45;;;23.90;;
65328;SDS011;51941;52.210;5.158;2023-05-10T01:34:44;37.97;;;22.27;;
65328;SDS011;51941;52.210;5.158;2023-05-10T01:37:20;33.92;;;21.65;;
65328;SDS011;51941;52.210;5.158;2023-05-10T01:39:54;37.05;;;22.80;;
65328;SDS011;51941;52.210;5.158;2023-05-10T01:42:25;40.33;;;23.35;;
65328;SDS011;51941;52.210;5.158;2023-05-10T01:44:58;42.25;;;23.98;;
65328;SDS011;51941;52.210;5.158;2023-05-10T01:47:30;42.03;;;24.27;;
65328;SDS011;51941;52.210;5.158;2023-05-10T01:50:04;41.92;;;25.45;;
65328;SDS011;51941;52.210;5.158;2023-05-10T01:52:36;46.90;;;25.55;;
65328;SDS011;51941;52.210;5.158;2023-05-10T01:55:08;42.22;;;24.25;;
65328;SDS011;51941;52.210;5.158;2023-05-10T01:57:39;39.67;;;23.23;;
65328;SDS011;51941;52.210;5.158;2023-05-10T02:00:09;46.50;;;24.73;;
65328;SDS011;51941;52.210;5.158;2023-05-10T02:02:44;42.92;;;24.63;;
65328;SDS011;51941;52.210;5.158;2023-05-10T02:05:12;55.78;;;29.95;;
65328;SDS011;51941;52.210;5.158;2023-05-10T02:07:39;43.38;;;24.27;;
65328;SDS011;51941;52.210;5.158;2023-05-10T02:10:08;48.88;;;26.95;;
65328;SDS011;51941;52.210;5.158;2023-05-10T02:12:37;45.37;;;25.20;;
65328;SDS011;51941;52.210;5.158;2023-05-10T02:15:07;42.78;;;25.33;;
65328;SDS011;51941;52.210;5.158;2023-05-10T02:17:37;44.22;;;25.80;;
65328;SDS011;51941;52.210;5.158;2023-05-10T02:20:07;46.85;;;25.75;;
65328;SDS011;51941;52.210;5.158;2023-05-10T02:22:35;50.20;;;27.73;;
65328;SDS011;51941;52.210;5.158;2023-05-10T02:25:05;51.58;;;27.95;;
65328;SDS011;51941;52.210;5.158;2023-05-10T02:27:34;42.25;;;25.00;;
65328;SDS011;51941;52.210;5.158;2023-05-10T02:30:03;46.55;;;25.38;;
65328;SDS011;51941;52.210;5.158;2023-05-10T02:32:32;54.58;;;27.27;;
65328;SDS011;51941;52.210;5.158;2023-05-10T02:35:00;49.17;;;26.80;;
65328;SDS011;51941;52.210;5.158;2023-05-10T02:37:30;51.60;;;27.45;;
65328;SDS011;51941;52.210;5.158;2023-05-10T02:39:58;49.38;;;27.35;;
65328;SDS011;51941;52.210;5.158;2023-05-10T02:42:27;51.40;;;27.50;;
65328;SDS011;51941;52.210;5.158;2023-05-10T02:44:58;51.55;;;26.65;;
65328;SDS011;51941;52.210;5.158;2023-05-10T02:47:26;51.47;;;28.55;;
65328;SDS011;51941;52.210;5.158;2023-05-10T02:49:53;48.40;;;26.98;;
65328;SDS011;51941;52.210;5.158;2023-05-10T02:52:21;53.38;;;29.90;;
65328;SDS011;51941;52.210;5.158;2023-05-10T02:54:54;55.78;;;31.77;;
65328;SDS011;51941;52.210;5.158;2023-05-10T02:57:24;65.93;;;34.75;;
65328;SDS011;51941;52.210;5.158;2023-05-10T02:59:53;67.35;;;35.88;;
65328;SDS011;51941;52.210;5.158;2023-05-10T03:02:21;71.40;;;34.40;;
65328;SDS011;51941;52.210;5.158;2023-05-10T03:04:47;74.70;;;36.08;;
65328;SDS011;51941;52.210;5.158;2023-05-10T03:07:14;68.85;;;32.00;;
65328;SDS011;51941;52.210;5.158;2023-05-10T03:09:42;70.47;;;32.15;;
65328;SDS011;51941;52.210;5.158;2023-05-10T03:12:11;76.10;;;32.35;;
65328;SDS011;51941;52.210;5.158;2023-05-10T03:14:49;71.15;;;30.45;;
65328;SDS011;51941;52.210;5.158;2023-05-10T03:17:25;61.33;;;28.13;;
65328;SDS011;51941;52.210;5.158;2023-05-10T03:19:57;71.00;;;29.35;;
65328;SDS011;51941;52.210;5.158;2023-05-10T03:22:30;72.25;;;29.95;;
65328;SDS011;51941;52.210;5.158;2023-05-10T03:24:58;65.85;;;26.95;;
65328;SDS011;51941;52.210;5.158;2023-05-10T03:27:30;64.05;;;28.58;;
65328;SDS011;51941;52.210;5.158;2023-05-10T03:29:59;61.58;;;28.17;;
65328;SDS011;51941;52.210;5.158;2023-05-10T03:32:30;68.90;;;28.60;;
65328;SDS011;51941;52.210;5.158;2023-05-10T03:35:00;60.95;;;26.55;;
65328;SDS011;51941;52.210;5.158;2023-05-10T03:37:27;65.97;;;27.95;;
65328;SDS011;51941;52.210;5.158;2023-05-10T03:39:54;63.28;;;27.25;;
65328;SDS011;51941;52.210;5.158;2023-05-10T03:42:20;60.78;;;27.08;;
65328;SDS011;51941;52.210;5.158;2023-05-10T03:44:48;59.38;;;26.30;;
65328;SDS011;51941;52.210;5.158;2023-05-10T03:47:16;49.80;;;23.65;;
65328;SDS011;51941;52.210;5.158;2023-05-10T03:49:42;60.17;;;24.02;;
65328;SDS011;51941;52.210;5.158;2023-05-10T03:52:11;58.17;;;25.08;;
65328;SDS011;51941;52.210;5.158;2023-05-10T03:54:38;58.22;;;24.85;;
65328;SDS011;51941;52.210;5.158;2023-05-10T03:57:05;56.63;;;25.73;;
65328;SDS011;51941;52.210;5.158;2023-05-10T03:59:31;53.67;;;24.05;;
65328;SDS011;51941;52.210;5.158;2023-05-10T04:01:59;61.83;;;27.40;;
65328;SDS011;51941;52.210;5.158;2023-05-10T04:04:26;52.10;;;24.75;;
65328;SDS011;51941;52.210;5.158;2023-05-10T04:06:53;49.70;;;25.30;;
65328;SDS011;51941;52.210;5.158;2023-05-10T04:09:20;49.75;;;25.35;;
65328;SDS011;51941;52.210;5.158;2023-05-10T04:11:46;60.30;;;29.08;;
65328;SDS011;51941;52.210;5.158;2023-05-10T04:14:13;58.85;;;28.15;;
65328;SDS011;51941;52.210;5.158;2023-05-10T04:16:40;52.63;;;27.30;;
65328;SDS011;51941;52.210;5.158;2023-05-10T04:19:08;56.00;;;26.60;;
65328;SDS011;51941;52.210;5.158;2023-05-10T04:21:34;47.33;;;25.60;;
65328;SDS011;51941;52.210;5.158;2023-05-10T04:24:01;51.70;;;25.92;;
65328;SDS011;51941;52.210;5.158;2023-05-10T04:26:28;51.78;;;24.45;;
65328;SDS011;51941;52.210;5.158;2023-05-10T04:28:54;57.30;;;27.35;;
65328;SDS011;51941;52.210;5.158;2023-05-10T04:31:21;52.40;;;25.15;;
65328;SDS011;51941;52.210;5.158;2023-05-10T04:33:47;60.50;;;25.95;;
65328;SDS011;51941;52.210;5.158;2023-05-10T04:36:16;57.38;;;26.17;;
65328;SDS011;51941;52.210;5.158;2023-05-10T04:38:42;55.40;;;24.35;;
65328;SDS011;51941;52.210;5.158;2023-05-10T04:41:10;57.92;;;25.00;;
65328;SDS011;51941;52.210;5.158;2023-05-10T04:43:37;55.80;;;24.20;;
65328;SDS011;51941;52.210;5.158;2023-05-10T04:46:04;48.83;;;21.80;;
65328;SDS011;51941;52.210;5.158;2023-05-10T04:48:32;60.95;;;25.83;;
65328;SDS011;51941;52.210;5.158;2023-05-10T04:50:59;53.80;;;25.25;;
65328;SDS011;51941;52.210;5.158;2023-05-10T04:53:27;52.67;;;25.65;;
65328;SDS011;51941;52.210;5.158;2023-05-10T04:55:54;52.88;;;24.27;;
65328;SDS011;51941;52.210;5.158;2023-05-10T04:58:20;69.40;;;31.80;;
65328;SDS011;51941;52.210;5.158;2023-05-10T05:00:47;52.35;;;25.77;;
65328;SDS011;51941;52.210;5.158;2023-05-10T05:03:14;48.67;;;25.33;;
65328;SDS011;51941;52.210;5.158;2023-05-10T05:05:40;55.17;;;27.17;;
65328;SDS011;51941;52.210;5.158;2023-05-10T05:08:07;48.05;;;25.05;;
65328;SDS011;51941;52.210;5.158;2023-05-10T05:10:35;77.57;;;32.80;;
65328;SDS011;51941;52.210;5.158;2023-05-10T05:13:02;48.10;;;26.88;;
65328;SDS011;51941;52.210;5.158;2023-05-10T05:15:28;49.47;;;25.98;;
65328;SDS011;51941;52.210;5.158;2023-05-10T05:17:56;40.92;;;22.40;;
65328;SDS011;51941;52.210;5.158;2023-05-10T05:20:22;37.35;;;19.35;;
65328;SDS011;51941;52.210;5.158;2023-05-10T05:22:49;37.67;;;19.48;;
65328;SDS011;51941;52.210;5.158;2023-05-10T05:25:16;29.65;;;16.05;;
65328;SDS011;51941;52.210;5.158;2023-05-10T05:27:44;29.67;;;17.20;;
65328;SDS011;51941;52.210;5.158;2023-05-10T05:30:11;26.42;;;15.10;;
65328;SDS011;51941;52.210;5.158;2023-05-10T05:32:37;25.17;;;14.88;;
65328;SDS011;51941;52.210;5.158;2023-05-10T05:35:04;25.02;;;15.25;;
65328;SDS011;51941;52.210;5.158;2023-05-10T05:37:31;23.73;;;13.80;;
65328;SDS011;51941;52.210;5.158;2023-05-10T05:39:58;21.75;;;13.50;;
65328;SDS011;51941;52.210;5.158;2023-05-10T05:42:26;21.25;;;13.50;;
65328;SDS011;51941;52.210;5.158;2023-05-10T05:44:55;24.73;;;12.70;;
65328;SDS011;51941;52.210;5.158;2023-05-10T05:47:22;18.25;;;11.95;;
65328;SDS011;51941;52.210;5.158;2023-05-10T05:49:49;17.67;;;11.68;;
65328;SDS011;51941;52.210;5.158;2023-05-10T05:52:16;16.17;;;10.07;;
65328;SDS011;51941;52.210;5.158;2023-05-10T05:54:43;16.42;;;10.60;;
65328;SDS011;51941;52.210;5.158;2023-05-10T05:57:10;15.45;;;10.20;;
65328;SDS011;51941;52.210;5.158;2023-05-10T05:59:36;15.93;;;10.63;;
65328;SDS011;51941;52.210;5.158;2023-05-10T06:02:08;15.05;;;10.05;;
65328;SDS011;51941;52.210;5.158;2023-05-10T06:04:35;18.92;;;11.88;;
65328;SDS011;51941;52.210;5.158;2023-05-10T06:07:02;18.27;;;10.80;;
65328;SDS011;51941;52.210;5.158;2023-05-10T06:09:28;24.58;;;14.20;;
65328;SDS011;51941;52.210;5.158;2023-05-10T06:11:55;25.05;;;13.32;;
65328;SDS011;51941;52.210;5.158;2023-05-10T06:14:22;25.58;;;14.48;;
65328;SDS011;51941;52.210;5.158;2023-05-10T06:16:49;24.75;;;13.55;;
65328;SDS011;51941;52.210;5.158;2023-05-10T06:19:17;23.65;;;13.95;;
65328;SDS011;51941;52.210;5.158;2023-05-10T06:21:43;25.65;;;13.23;;
65328;SDS011;51941;52.210;5.158;2023-05-10T06:24:10;23.25;;;13.30;;
65328;SDS011;51941;52.210;5.158;2023-05-10T06:26:37;26.60;;;13.77;;
65328;SDS011;51941;52.210;5.158;2023-05-10T06:29:04;29.65;;;14.45;;
65328;SDS011;51941;52.210;5.158;2023-05-10T06:31:31;31.98;;;16.15;;
65328;SDS011;51941;52.210;5.158;2023-05-10T06:33:57;24.63;;;13.32;;
65328;SDS011;51941;52.210;5.158;2023-05-10T06:36:25;26.25;;;14.55;;
65328;SDS011;51941;52.210;5.158;2023-05-10T06:38:52;21.35;;;13.23;;
65328;SDS011;51941;52.210;5.158;2023-05-10T06:41:19;27.60;;;14.73;;
65328;SDS011;51941;52.210;5.158;2023-05-10T06:43:46;23.80;;;13.63;;
65328;SDS011;51941;52.210;5.158;2023-05-10T06:46:12;25.85;;;14.02;;
65328;SDS011;51941;52.210;5.158;2023-05-10T06:48:39;21.27;;;12.57;;
65328;SDS011;51941;52.210;5.158;2023-05-10T06:51:06;21.55;;;12.15;;
65328;SDS011;51941;52.210;5.158;2023-05-10T06:53:34;19.77;;;11.80;;
65328;SDS011;51941;52.210;5.158;2023-05-10T06:56:01;23.08;;;11.80;;
65328;SDS011;51941;52.210;5.158;2023-05-10T06:58:28;15.90;;;10.40;;
65328;SDS011;51941;52.210;5.158;2023-05-10T07:01:01;17.23;;;10.27;;
65328;SDS011;51941;52.210;5.158;2023-05-10T07:03:28;18.75;;;12.10;;
65328;SDS011;51941;52.210;5.158;2023-05-10T07:05:59;18.10;;;11.57;;
65328;SDS011;51941;52.210;5.158;2023-05-10T07:08:28;21.90;;;12.60;;
65328;SDS011;51941;52.210;5.158;2023-05-10T07:11:00;23.90;;;12.57;;
65328;SDS011;51941;52.210;5.158;2023-05-10T07:13:28;18.23;;;11.20;;
65328;SDS011;51941;52.210;5.158;2023-05-10T07:15:55;15.95;;;11.00;;
65328;SDS011;51941;52.210;5.158;2023-05-10T07:18:22;13.25;;;10.40;;
65328;SDS011;51941;52.210;5.158;2023-05-10T07:20:48;17.02;;;11.30;;
65328;SDS011;51941;52.210;5.158;2023-05-10T07:23:15;17.17;;;11.23;;
65328;SDS011;51941;52.210;5.158;2023-05-10T07:25:44;19.50;;;11.65;;
65328;SDS011;51941;52.210;5.158;2023-05-10T07:28:12;22.45;;;11.40;;
65328;SDS011;51941;52.210;5.158;2023-05-10T07:30:39;24.33;;;14.10;;
65328;SDS011;51941;52.210;5.158;2023-05-10T07:33:06;18.08;;;11.13;;
65328;SDS011;51941;52.210;5.158;2023-05-10T07:35:33;20.55;;;10.70;;
65328;SDS011;51941;52.210;5.158;2023-05-10T07:38:00;18.42;;;11.50;;
65328;SDS011;51941;52.210;5.158;2023-05-10T07:40:27;17.52;;;11.40;;
65328;SDS011;51941;52.210;5.158;2023-05-10T07:42:54;21.05;;;11.13;;
65328;SDS011;51941;52.210;5.158;2023-05-10T07:45:22;17.42;;;10.93;;
65328;SDS011;51941;52.210;5.158;2023-05-10T07:47:49;15.63;;;10.63;;
65328;SDS011;51941;52.210;5.158;2023-05-10T07:50:16;15.70;;;10.07;;
65328;SDS011;51941;52.210;5.158;2023-05-10T07:52:43;16.83;;;11.75;;
65328;SDS011;51941;52.210;5.158;2023-05-10T07:55:10;17.13;;;11.55;;
65328;SDS011;51941;52.210;5.158;2023-05-10T07:57:37;16.65;;;11.02;;
65328;SDS011;51941;52.210;5.158;2023-05-10T08:00:04;18.45;;;11.40;;
65328;SDS011;51941;52.210;5.158;2023-05-10T08:02:39;17.77;;;12.20;;
65328;SDS011;51941;52.210;5.158;2023-05-10T08:05:07;15.17;;;10.97;;
65328;SDS011;51941;52.210;5.158;2023-05-10T08:07:34;18.02;;;11.13;;
65328;SDS011;51941;52.210;5.158;2023-05-10T08:10:01;18.83;;;11.43;;
65328;SDS011;51941;52.210;5.158;2023-05-10T08:12:28;18.80;;;11.88;;
65328;SDS011;51941;52.210;5.158;2023-05-10T08:14:55;14.95;;;10.15;;
65328;SDS011;51941;52.210;5.158;2023-05-10T08:17:22;16.55;;;10.45;;
65328;SDS011;51941;52.210;5.158;2023-05-10T08:19:50;14.32;;;10.05;;
65328;SDS011;51941;52.210;5.158;2023-05-10T08:22:16;15.80;;;10.40;;
65328;SDS011;51941;52.210;5.158;2023-05-10T08:24:43;15.80;;;10.27;;
65328;SDS011;51941;52.210;5.158;2023-05-10T08:27:10;14.88;;;10.57;;
65328;SDS011;51941;52.210;5.158;2023-05-10T08:29:37;15.10;;;10.75;;
65328;SDS011;51941;52.210;5.158;2023-05-10T08:32:04;14.00;;;10.40;;
65328;SDS011;51941;52.210;5.158;2023-05-10T08:34:30;12.15;;;8.77;;
65328;SDS011;51941;52.210;5.158;2023-05-10T08:36:58;10.35;;;8.20;;
65328;SDS011;51941;52.210;5.158;2023-05-10T08:39:25;12.18;;;8.35;;
65328;SDS011;51941;52.210;5.158;2023-05-10T08:41:53;13.95;;;8.90;;
65328;SDS011;51941;52.210;5.158;2023-05-10T08:44:24;10.80;;;8.27;;
65328;SDS011;51941;52.210;5.158;2023-05-10T08:46:51;11.55;;;7.95;;
65328;SDS011;51941;52.210;5.158;2023-05-10T08:49:21;11.25;;;7.68;;
65328;SDS011;51941;52.210;5.158;2023-05-10T08:51:50;9.48;;;7.88;;
65328;SDS011;51941;52.210;5.158;2023-05-10T08:54:22;14.73;;;8.00;;
65328;SDS011;51941;52.210;5.158;2023-05-10T08:56:49;16.60;;;8.32;;
65328;SDS011;51941;52.210;5.158;2023-05-10T08:59:16;9.98;;;7.38;;
65328;SDS011;51941;52.210;5.158;2023-05-10T09:01:43;10.40;;;8.05;;
65328;SDS011;51941;52.210;5.158;2023-05-10T09:04:13;8.70;;;7.10;;
65328;SDS011;51941;52.210;5.158;2023-05-10T09:06:40;13.43;;;7.68;;
65328;SDS011;51941;52.210;5.158;2023-05-10T09:09:07;10.60;;;7.60;;
65328;SDS011;51941;52.210;5.158;2023-05-10T09:11:35;10.80;;;7.63;;
65328;SDS011;51941;52.210;5.158;2023-05-10T09:14:01;7.88;;;6.82;;
65328;SDS011;51941;52.210;5.158;2023-05-10T09:16:28;10.65;;;6.80;;
65328;SDS011;51941;52.210;5.158;2023-05-10T09:18:55;10.00;;;7.00;;
65328;SDS011;51941;52.210;5.158;2023-05-10T09:21:22;10.07;;;6.38;;
65328;SDS011;51941;52.210;5.158;2023-05-10T09:23:48;7.95;;;6.47;;
65328;SDS011;51941;52.210;5.158;2023-05-10T09:26:16;11.15;;;6.75;;
65328;SDS011;51941;52.210;5.158;2023-05-10T09:28:53;7.80;;;6.63;;
65328;SDS011;51941;52.210;5.158;2023-05-10T09:31:21;9.55;;;8.07;;
65328;SDS011;51941;52.210;5.158;2023-05-10T09:33:49;8.38;;;6.22;;
65328;SDS011;51941;52.210;5.158;2023-05-10T09:36:16;8.95;;;5.43;;
65328;SDS011;51941;52.210;5.158;2023-05-10T09:38:46;8.48;;;5.63;;
65328;SDS011;51941;52.210;5.158;2023-05-10T09:41:17;9.00;;;5.30;;
65328;SDS011;51941;52.210;5.158;2023-05-10T09:43:45;6.78;;;4.63;;
65328;SDS011;51941;52.210;5.158;2023-05-10T09:46:13;13.77;;;5.78;;
65328;SDS011;51941;52.210;5.158;2023-05-10T09:48:42;8.05;;;5.35;;
65328;SDS011;51941;52.210;5.158;2023-05-10T09:51:10;9.60;;;5.30;;
65328;SDS011;51941;52.210;5.158;2023-05-10T09:53:36;5.50;;;4.82;;
65328;SDS011;51941;52.210;5.158;2023-05-10T09:56:03;7.20;;;5.30;;
65328;SDS011;51941;52.210;5.158;2023-05-10T09:58:30;6.68;;;5.20;;
65328;SDS011;51941;52.210;5.158;2023-05-10T10:00:57;6.55;;;4.90;;
65328;SDS011;51941;52.210;5.158;2023-05-10T10:03:25;6.13;;;5.18;;
65328;SDS011;51941;52.210;5.158;2023-05-10T10:05:52;5.80;;;4.70;;
65328;SDS011;51941;52.210;5.158;2023-05-10T10:08:21;5.97;;;4.53;;
65328;SDS011;51941;52.210;5.158;2023-05-10T10:10:48;5.30;;;4.25;;
65328;SDS011;51941;52.210;5.158;2023-05-10T10:13:15;5.57;;;3.92;;
65328;SDS011;51941;52.210;5.158;2023-05-10T10:15:42;5.57;;;4.05;;
65328;SDS011;51941;52.210;5.158;2023-05-10T10:18:11;5.43;;;3.92;;
65328;SDS011;51941;52.210;5.158;2023-05-10T10:20:41;8.27;;;3.60;;
65328;SDS011;51941;52.210;5.158;2023-05-10T10:23:08;6.23;;;3.87;;
65328;SDS011;51941;52.210;5.158;2023-05-10T10:25:38;5.65;;;3.75;;
65328;SDS011;51941;52.210;5.158;2023-05-10T10:28:09;3.83;;;2.97;;
65328;SDS011;51941;52.210;5.158;2023-05-10T10:30:44;4.65;;;3.00;;
65328;SDS011;51941;52.210;5.158;2023-05-10T10:33:21;4.35;;;3.10;;
65328;SDS011;51941;52.210;5.158;2023-05-10T10:35:59;4.10;;;3.10;;
65328;SDS011;51941;52.210;5.158;2023-05-10T10:38:35;5.43;;;3.88;;
65328;SDS011;51941;52.210;5.158;2023-05-10T10:41:08;6.53;;;4.30;;
65328;SDS011;51941;52.210;5.158;2023-05-10T10:43:37;7.45;;;3.80;;
65328;SDS011;51941;52.210;5.158;2023-05-10T10:46:10;4.90;;;3.67;;
65328;SDS011;51941;52.210;5.158;2023-05-10T10:48:39;5.20;;;2.97;;
65328;SDS011;51941;52.210;5.158;2023-05-10T10:51:08;5.65;;;3.22;;
65328;SDS011;51941;52.210;5.158;2023-05-10T10:53:36;5.80;;;3.05;;
65328;SDS011;51941;52.210;5.158;2023-05-10T10:56:06;3.55;;;2.78;;
65328;SDS011;51941;52.210;5.158;2023-05-10T10:58:35;5.07;;;2.90;;
65328;SDS011;51941;52.210;5.158;2023-05-10T11:01:09;4.60;;;2.83;;
65328;SDS011;51941;52.210;5.158;2023-05-10T11:03:37;3.92;;;2.58;;
65328;SDS011;51941;52.210;5.158;2023-05-10T11:06:04;4.80;;;2.75;;
65328;SDS011;51941;52.210;5.158;2023-05-10T11:08:32;5.88;;;3.40;;
65328;SDS011;51941;52.210;5.158;2023-05-10T11:11:04;7.05;;;2.65;;
65328;SDS011;51941;52.210;5.158;2023-05-10T11:13:44;5.78;;;4.32;;
65328;SDS011;51941;52.210;5.158;2023-05-10T11:16:14;5.60;;;3.63;;
65328;SDS011;51941;52.210;5.158;2023-05-10T11:18:52;4.45;;;3.67;;
65328;SDS011;51941;52.210;5.158;2023-05-10T11:21:29;3.55;;;3.10;;
65328;SDS011;51941;52.210;5.158;2023-05-10T11:23:58;4.85;;;3.05;;
65328;SDS011;51941;52.210;5.158;2023-05-10T11:26:31;5.22;;;2.90;;
65328;SDS011;51941;52.210;5.158;2023-05-10T11:28:58;6.32;;;2.90;;
65328;SDS011;51941;52.210;5.158;2023-05-10T11:31:25;6.15;;;3.15;;
65328;SDS011;51941;52.210;5.158;2023-05-10T11:33:53;4.15;;;2.78;;
65328;SDS011;51941;52.210;5.158;2023-05-10T11:36:24;5.82;;;2.80;;
65328;SDS011;51941;52.210;5.158;2023-05-10T11:38:52;5.47;;;2.53;;
65328;SDS011;51941;52.210;5.158;2023-05-10T11:41:21;4.35;;;2.47;;
65328;SDS011;51941;52.210;5.158;2023-05-10T11:43:49;4.78;;;2.53;;
65328;SDS011;51941;52.210;5.158;2023-05-10T11:46:18;3.63;;;2.40;;
65328;SDS011;51941;52.210;5.158;2023-05-10T11:48:45;5.03;;;2.90;;
65328;SDS011;51941;52.210;5.158;2023-05-10T11:51:13;4.25;;;2.85;;
65328;SDS011;51941;52.210;5.158;2023-05-10T11:53:40;4.40;;;2.75;;
65328;SDS011;51941;52.210;5.158;2023-05-10T11:56:07;2.50;;;2.17;;
65328;SDS011;51941;52.210;5.158;2023-05-10T11:58:36;3.60;;;2.63;;
65328;SDS011;51941;52.210;5.158;2023-05-10T12:01:04;5.60;;;3.15;;
65328;SDS011;51941;52.210;5.158;2023-05-10T12:03:32;5.63;;;2.85;;
65328;SDS011;51941;52.210;5.158;2023-05-10T12:05:59;4.05;;;2.90;;
65328;SDS011;51941;52.210;5.158;2023-05-10T12:08:28;5.90;;;3.03;;
65328;SDS011;51941;52.210;5.158;2023-05-10T12:11:04;4.78;;;3.35;;
65328;SDS011;51941;52.210;5.158;2023-05-10T12:13:31;4.00;;;3.28;;
65328;SDS011;51941;52.210;5.158;2023-05-10T12:16:00;3.70;;;2.47;;
65328;SDS011;51941;52.210;5.158;2023-05-10T12:18:39;3.40;;;3.00;;
65328;SDS011;51941;52.210;5.158;2023-05-10T12:21:06;4.25;;;2.85;;
65328;SDS011;51941;52.210;5.158;2023-05-10T12:23:33;5.18;;;3.25;;
65328;SDS011;51941;52.210;5.158;2023-05-10T12:26:02;4.57;;;3.00;;
65328;SDS011;51941;52.210;5.158;2023-05-10T12:28:29;4.13;;;2.88;;
65328;SDS011;51941;52.210;5.158;2023-05-10T12:30:57;3.65;;;3.10;;
65328;SDS011;51941;52.210;5.158;2023-05-10T12:33:26;3.65;;;2.95;;
65328;SDS011;51941;52.210;5.158;2023-05-10T12:35:53;5.45;;;3.42;;
65328;SDS011;51941;52.210;5.158;2023-05-10T12:38:24;7.95;;;3.55;;
65328;SDS011;51941;52.210;5.158;2023-05-10T12:40:54;3.70;;;3.28;;
65328;SDS011;51941;52.210;5.158;2023-05-10T12:43:21;6.00;;;4.88;;
65328;SDS011;51941;52.210;5.158;2023-05-10T12:45:49;6.53;;;4.32;;
65328;SDS011;51941;52.210;5.158;2023-05-10T12:48:16;5.68;;;4.63;;
65328;SDS011;51941;52.210;5.158;2023-05-10T12:50:44;7.57;;;4.20;;
65328;SDS011;51941;52.210;5.158;2023-05-10T12:53:12;7.45;;;4.97;;
65328;SDS011;51941;52.210;5.158;2023-05-10T12:55:40;7.88;;;6.15;;
65328;SDS011;51941;52.210;5.158;2023-05-10T12:58:07;11.73;;;8.00;;
65328;SDS011;51941;52.210;5.158;2023-05-10T13:00:34;9.35;;;6.35;;
65328;SDS011;51941;52.210;5.158;2023-05-10T13:03:03;11.82;;;7.90;;
65328;SDS011;51941;52.210;5.158;2023-05-10T13:05:31;12.10;;;8.60;;
65328;SDS011;51941;52.210;5.158;2023-05-10T13:07:59;14.88;;;9.20;;
65328;SDS011;51941;52.210;5.158;2023-05-10T13:10:27;17.20;;;10.93;;
65328;SDS011;51941;52.210;5.158;2023-05-10T13:12:55;14.38;;;9.52;;
65328;SDS011;51941;52.210;5.158;2023-05-10T13:15:22;19.90;;;8.65;;
65328;SDS011;51941;52.210;5.158;2023-05-10T13:17:55;16.70;;;9.35;;
65328;SDS011;51941;52.210;5.158;2023-05-10T13:20:22;15.68;;;9.98;;
65328;SDS011;51941;52.210;5.158;2023-05-10T13:22:49;20.58;;;10.65;;
65328;SDS011;51941;52.210;5.158;2023-05-10T13:25:17;15.60;;;9.00;;
65328;SDS011;51941;52.210;5.158;2023-05-10T13:27:44;17.85;;;9.68;;
65328;SDS011;51941;52.210;5.158;2023-05-10T13:30:10;17.67;;;9.70;;
65328;SDS011;51941;52.210;5.158;2023-05-10T13:32:37;16.65;;;8.93;;
65328;SDS011;51941;52.210;5.158;2023-05-10T13:35:05;14.00;;;8.45;;
65328;SDS011;51941;52.210;5.158;2023-05-10T13:37:32;14.27;;;7.50;;
65328;SDS011;51941;52.210;5.158;2023-05-10T13:40:03;11.85;;;7.35;;
65328;SDS011;51941;52.210;5.158;2023-05-10T13:42:45;9.85;;;6.70;;
65328;SDS011;51941;52.210;5.158;2023-05-10T13:45:12;9.98;;;6.38;;
65328;SDS011;51941;52.210;5.158;2023-05-10T13:47:39;11.80;;;7.03;;
65328;SDS011;51941;52.210;5.158;2023-05-10T13:50:06;10.85;;;5.65;;
65328;SDS011;51941;52.210;5.158;2023-05-10T13:52:33;12.13;;;6.78;;
65328;SDS011;51941;52.210;5.158;2023-05-10T13:55:00;12.15;;;7.50;;
65328;SDS011;51941;52.210;5.158;2023-05-10T13:57:27;8.95;;;5.43;;
65328;SDS011;51941;52.210;5.158;2023-05-10T13:59:58;10.00;;;6.45;;
65328;SDS011;51941;52.210;5.158;2023-05-10T14:02:24;7.40;;;4.97;;
65328;SDS011;51941;52.210;5.158;2023-05-10T14:04:52;10.52;;;6.38;;
65328;SDS011;51941;52.210;5.158;2023-05-10T14:07:29;9.68;;;6.20;;
65328;SDS011;51941;52.210;5.158;2023-05-10T14:09:59;10.63;;;6.30;;
65328;SDS011;51941;52.210;5.158;2023-05-10T14:12:26;9.20;;;5.85;;
65328;SDS011;51941;52.210;5.158;2023-05-10T14:14:53;9.35;;;6.05;;
65328;SDS011;51941;52.210;5.158;2023-05-10T14:17:24;12.90;;;5.95;;
65328;SDS011;51941;52.210;5.158;2023-05-10T14:19:51;8.55;;;5.22;;
65328;SDS011;51941;52.210;5.158;2023-05-10T14:22:19;9.98;;;5.30;;
65328;SDS011;51941;52.210;5.158;2023-05-10T14:24:45;12.10;;;6.60;;
65328;SDS011;51941;52.210;5.158;2023-05-10T14:27:12;9.68;;;5.85;;
65328;SDS011;51941;52.210;5.158;2023-05-10T14:29:39;10.68;;;5.43;;
65328;SDS011;51941;52.210;5.158;2023-05-10T14:32:05;8.50;;;5.28;;
65328;SDS011;51941;52.210;5.158;2023-05-10T14:34:34;9.32;;;5.60;;
65328;SDS011;51941;52.210;5.158;2023-05-10T14:37:00;10.07;;;5.57;;
65328;SDS011;51941;52.210;5.158;2023-05-10T14:39:27;8.20;;;4.90;;
65328;SDS011;51941;52.210;5.158;2023-05-10T14:41:55;7.68;;;5.22;;
65328;SDS011;51941;52.210;5.158;2023-05-10T14:44:21;8.23;;;5.28;;